sensor_id;sensor_type;location;lat;lon;timestamp;P1;durP1;ratioP1;P2;durP2;ratioP2
12474;SDS011;6302;42.624;23.334;2023-08-06T00:00:24;6.57;;;3.73;;
12474;SDS011;6302;42.624;23.334;2023-08-06T00:02:51;5.07;;;3.90;;
12474;SDS011;6302;42.624;23.334;2023-08-06T00:05:17;4.40;;;3.77;;
12474;SDS011;6302;42.624;23.334;2023-08-06T00:07:46;4.90;;;4.00;;
12474;SDS011;6302;42.624;23.334;2023-08-06T00:10:13;5.93;;;4.70;;
12474;SDS011;6302;42.624;23.334;2023-08-06T00:12:39;6.13;;;3.90;;
12474;SDS011;6302;42.624;23.334;2023-08-06T00:15:08;5.97;;;4.03;;
12474;SDS011;6302;42.624;23.334;2023-08-06T00:17:36;4.70;;;4.30;;
12474;SDS011;6302;42.624;23.334;2023-08-06T00:20:04;5.83;;;4.10;;
12474;SDS011;6302;42.624;23.334;2023-08-06T00:22:32;4.27;;;3.83;;
12474;SDS011;6302;42.624;23.334;2023-08-06T00:24:59;5.17;;;4.33;;
12474;SDS011;6302;42.624;23.334;2023-08-06T00:27:26;6.10;;;4.40;;
12474;SDS011;6302;42.624;23.334;2023-08-06T00:29:52;4.83;;;4.30;;
12474;SDS011;6302;42.624;23.334;2023-08-06T00:32:21;6.83;;;4.70;;
12474;SDS011;6302;42.624;23.334;2023-08-06T00:34:48;4.70;;;4.30;;
12474;SDS011;6302;42.624;23.334;2023-08-06T00:37:15;4.53;;;4.13;;
12474;SDS011;6302;42.624;23.334;2023-08-06T00:39:43;6.83;;;4.63;;
12474;SDS011;6302;42.624;23.334;2023-08-06T00:42:10;5.13;;;3.77;;
12474;SDS011;6302;42.624;23.334;2023-08-06T00:44:37;4.80;;;4.17;;
12474;SDS011;6302;42.624;23.334;2023-08-06T00:47:04;5.00;;;4.13;;
12474;SDS011;6302;42.624;23.334;2023-08-06T00:49:33;5.70;;;3.57;;
12474;SDS011;6302;42.624;23.334;2023-08-06T00:52:01;4.60;;;3.67;;
12474;SDS011;6302;42.624;23.334;2023-08-06T00:54:30;4.30;;;3.90;;
12474;SDS011;6302;42.624;23.334;2023-08-06T00:56:57;5.20;;;3.83;;
12474;SDS011;6302;42.624;23.334;2023-08-06T00:59:25;4.00;;;3.63;;
12474;SDS011;6302;42.624;23.334;2023-08-06T01:01:52;4.17;;;3.77;;
12474;SDS011;6302;42.624;23.334;2023-08-06T01:04:19;3.93;;;3.60;;
12474;SDS011;6302;42.624;23.334;2023-08-06T01:06:48;3.90;;;3.60;;
12474;SDS011;6302;42.624;23.334;2023-08-06T01:09:26;4.20;;;3.80;;
12474;SDS011;6302;42.624;23.334;2023-08-06T01:12:05;3.93;;;3.63;;
12474;SDS011;6302;42.624;23.334;2023-08-06T01:14:42;4.17;;;3.77;;
12474;SDS011;6302;42.624;23.334;2023-08-06T01:17:17;3.90;;;3.50;;
12474;SDS011;6302;42.624;23.334;2023-08-06T01:19:45;4.07;;;3.43;;
12474;SDS011;6302;42.624;23.334;2023-08-06T01:22:14;4.30;;;3.90;;
12474;SDS011;6302;42.624;23.334;2023-08-06T01:24:40;4.40;;;4.00;;
12474;SDS011;6302;42.624;23.334;2023-08-06T01:27:14;3.93;;;3.63;;
12474;SDS011;6302;42.624;23.334;2023-08-06T01:29:50;4.40;;;4.00;;
12474;SDS011;6302;42.624;23.334;2023-08-06T01:32:27;4.40;;;4.00;;
12474;SDS011;6302;42.624;23.334;2023-08-06T01:34:59;3.97;;;3.67;;
12474;SDS011;6302;42.624;23.334;2023-08-06T01:37:28;4.43;;;4.03;;
12474;SDS011;6302;42.624;23.334;2023-08-06T01:39:55;4.43;;;4.03;;
12474;SDS011;6302;42.624;23.334;2023-08-06T01:42:22;4.40;;;3.87;;
12474;SDS011;6302;42.624;23.334;2023-08-06T01:44:49;4.47;;;3.90;;
12474;SDS011;6302;42.624;23.334;2023-08-06T01:47:15;3.90;;;3.50;;
12474;SDS011;6302;42.624;23.334;2023-08-06T01:49:42;5.03;;;3.50;;
12474;SDS011;6302;42.624;23.334;2023-08-06T01:52:09;3.97;;;3.60;;
12474;SDS011;6302;42.624;23.334;2023-08-06T01:54:37;4.37;;;3.37;;
12474;SDS011;6302;42.624;23.334;2023-08-06T01:57:04;4.13;;;3.73;;
12474;SDS011;6302;42.624;23.334;2023-08-06T01:59:31;4.87;;;4.47;;
12474;SDS011;6302;42.624;23.334;2023-08-06T02:01:58;5.33;;;4.80;;
12474;SDS011;6302;42.624;23.334;2023-08-06T02:04:25;6.00;;;5.33;;
12474;SDS011;6302;42.624;23.334;2023-08-06T02:06:52;5.97;;;4.63;;
12474;SDS011;6302;42.624;23.334;2023-08-06T02:09:19;5.93;;;5.27;;
12474;SDS011;6302;42.624;23.334;2023-08-06T02:11:47;5.50;;;5.00;;
12474;SDS011;6302;42.624;23.334;2023-08-06T02:14:13;6.70;;;5.87;;
12474;SDS011;6302;42.624;23.334;2023-08-06T02:16:40;6.40;;;5.60;;
12474;SDS011;6302;42.624;23.334;2023-08-06T02:19:07;6.60;;;5.37;;
12474;SDS011;6302;42.624;23.334;2023-08-06T02:21:34;8.20;;;5.87;;
12474;SDS011;6302;42.624;23.334;2023-08-06T02:24:01;6.30;;;5.70;;
12474;SDS011;6302;42.624;23.334;2023-08-06T02:26:27;6.33;;;5.77;;
12474;SDS011;6302;42.624;23.334;2023-08-06T02:28:56;5.73;;;4.83;;
12474;SDS011;6302;42.624;23.334;2023-08-06T02:31:22;6.17;;;5.03;;
12474;SDS011;6302;42.624;23.334;2023-08-06T02:33:49;5.77;;;5.07;;
12474;SDS011;6302;42.624;23.334;2023-08-06T02:36:16;6.07;;;5.10;;
12474;SDS011;6302;42.624;23.334;2023-08-06T02:38:42;6.43;;;5.10;;
12474;SDS011;6302;42.624;23.334;2023-08-06T02:41:09;6.23;;;4.97;;
12474;SDS011;6302;42.624;23.334;2023-08-06T02:43:36;5.07;;;4.57;;
12474;SDS011;6302;42.624;23.334;2023-08-06T02:46:04;4.70;;;4.20;;
12474;SDS011;6302;42.624;23.334;2023-08-06T02:48:31;4.50;;;4.10;;
12474;SDS011;6302;42.624;23.334;2023-08-06T02:50:58;4.73;;;4.33;;
12474;SDS011;6302;42.624;23.334;2023-08-06T02:53:25;6.27;;;5.07;;
12474;SDS011;6302;42.624;23.334;2023-08-06T02:55:52;5.13;;;4.53;;
12474;SDS011;6302;42.624;23.334;2023-08-06T02:58:19;6.40;;;4.30;;
12474;SDS011;6302;42.624;23.334;2023-08-06T03:00:58;5.00;;;4.50;;
12474;SDS011;6302;42.624;23.334;2023-08-06T03:03:29;4.33;;;3.93;;
12474;SDS011;6302;42.624;23.334;2023-08-06T03:05:56;4.60;;;4.20;;
12474;SDS011;6302;42.624;23.334;2023-08-06T03:08:23;5.80;;;4.47;;
12474;SDS011;6302;42.624;23.334;2023-08-06T03:10:50;4.50;;;3.70;;
12474;SDS011;6302;42.624;23.334;2023-08-06T03:13:17;4.27;;;3.87;;
12474;SDS011;6302;42.624;23.334;2023-08-06T03:15:44;3.63;;;3.33;;
12474;SDS011;6302;42.624;23.334;2023-08-06T03:18:19;3.80;;;3.50;;
12474;SDS011;6302;42.624;23.334;2023-08-06T03:20:47;4.83;;;3.70;;
12474;SDS011;6302;42.624;23.334;2023-08-06T03:23:14;3.33;;;3.00;;
12474;SDS011;6302;42.624;23.334;2023-08-06T03:25:41;3.97;;;3.67;;
12474;SDS011;6302;42.624;23.334;2023-08-06T03:28:07;3.93;;;3.20;;
12474;SDS011;6302;42.624;23.334;2023-08-06T03:30:34;4.97;;;3.53;;
12474;SDS011;6302;42.624;23.334;2023-08-06T03:33:01;5.07;;;3.83;;
12474;SDS011;6302;42.624;23.334;2023-08-06T03:35:28;3.87;;;3.57;;
12474;SDS011;6302;42.624;23.334;2023-08-06T03:37:56;4.47;;;3.83;;
12474;SDS011;6302;42.624;23.334;2023-08-06T03:40:23;3.73;;;3.33;;
12474;SDS011;6302;42.624;23.334;2023-08-06T03:42:49;3.83;;;3.53;;
12474;SDS011;6302;42.624;23.334;2023-08-06T03:45:16;4.03;;;3.63;;
12474;SDS011;6302;42.624;23.334;2023-08-06T03:47:43;3.97;;;3.60;;
12474;SDS011;6302;42.624;23.334;2023-08-06T03:50:10;4.47;;;3.87;;
12474;SDS011;6302;42.624;23.334;2023-08-06T03:52:37;3.60;;;3.30;;
12474;SDS011;6302;42.624;23.334;2023-08-06T03:55:05;4.10;;;3.73;;
12474;SDS011;6302;42.624;23.334;2023-08-06T03:57:32;5.30;;;3.40;;
12474;SDS011;6302;42.624;23.334;2023-08-06T03:59:59;4.30;;;3.90;;
12474;SDS011;6302;42.624;23.334;2023-08-06T04:02:25;4.57;;;3.27;;
12474;SDS011;6302;42.624;23.334;2023-08-06T04:04:52;4.47;;;3.90;;
12474;SDS011;6302;42.624;23.334;2023-08-06T04:07:19;4.07;;;3.70;;
12474;SDS011;6302;42.624;23.334;2023-08-06T04:09:52;3.70;;;3.40;;
12474;SDS011;6302;42.624;23.334;2023-08-06T04:12:21;4.27;;;3.80;;
12474;SDS011;6302;42.624;23.334;2023-08-06T04:14:49;4.27;;;3.63;;
12474;SDS011;6302;42.624;23.334;2023-08-06T04:17:16;4.63;;;4.13;;
12474;SDS011;6302;42.624;23.334;2023-08-06T04:19:45;3.73;;;3.43;;
12474;SDS011;6302;42.624;23.334;2023-08-06T04:22:12;6.17;;;3.83;;
12474;SDS011;6302;42.624;23.334;2023-08-06T04:24:39;4.77;;;4.27;;
12474;SDS011;6302;42.624;23.334;2023-08-06T04:27:06;4.47;;;4.07;;
12474;SDS011;6302;42.624;23.334;2023-08-06T04:29:34;4.53;;;4.13;;
12474;SDS011;6302;42.624;23.334;2023-08-06T04:32:01;5.70;;;4.73;;
12474;SDS011;6302;42.624;23.334;2023-08-06T04:34:28;4.60;;;4.20;;
12474;SDS011;6302;42.624;23.334;2023-08-06T04:36:54;5.27;;;4.80;;
12474;SDS011;6302;42.624;23.334;2023-08-06T04:39:21;6.37;;;5.67;;
12474;SDS011;6302;42.624;23.334;2023-08-06T04:41:48;5.20;;;4.70;;
12474;SDS011;6302;42.624;23.334;2023-08-06T04:44:15;5.23;;;4.53;;
12474;SDS011;6302;42.624;23.334;2023-08-06T04:46:43;5.33;;;4.83;;
12474;SDS011;6302;42.624;23.334;2023-08-06T04:49:10;5.07;;;4.57;;
12474;SDS011;6302;42.624;23.334;2023-08-06T04:51:36;5.30;;;4.80;;
12474;SDS011;6302;42.624;23.334;2023-08-06T04:54:03;4.97;;;4.57;;
12474;SDS011;6302;42.624;23.334;2023-08-06T04:56:30;5.67;;;4.80;;
12474;SDS011;6302;42.624;23.334;2023-08-06T04:58:57;5.07;;;4.67;;
12474;SDS011;6302;42.624;23.334;2023-08-06T05:01:25;5.20;;;4.70;;
12474;SDS011;6302;42.624;23.334;2023-08-06T05:03:53;5.50;;;4.73;;
12474;SDS011;6302;42.624;23.334;2023-08-06T05:06:20;5.27;;;4.77;;
12474;SDS011;6302;42.624;23.334;2023-08-06T05:08:47;6.27;;;5.57;;
12474;SDS011;6302;42.624;23.334;2023-08-06T05:11:13;6.10;;;5.53;;
12474;SDS011;6302;42.624;23.334;2023-08-06T05:13:40;6.50;;;5.90;;
12474;SDS011;6302;42.624;23.334;2023-08-06T05:16:07;6.00;;;5.37;;
12474;SDS011;6302;42.624;23.334;2023-08-06T05:18:34;6.03;;;5.43;;
12474;SDS011;6302;42.624;23.334;2023-08-06T05:21:04;6.60;;;4.83;;
12474;SDS011;6302;42.624;23.334;2023-08-06T05:23:30;6.87;;;5.83;;
12474;SDS011;6302;42.624;23.334;2023-08-06T05:25:57;7.33;;;6.63;;
12474;SDS011;6302;42.624;23.334;2023-08-06T05:28:24;9.10;;;8.30;;
12474;SDS011;6302;42.624;23.334;2023-08-06T05:30:51;9.40;;;8.60;;
12474;SDS011;6302;42.624;23.334;2023-08-06T05:33:18;9.50;;;8.70;;
12474;SDS011;6302;42.624;23.334;2023-08-06T05:35:44;9.80;;;9.00;;
12474;SDS011;6302;42.624;23.334;2023-08-06T05:38:13;10.63;;;9.73;;
12474;SDS011;6302;42.624;23.334;2023-08-06T05:40:39;9.63;;;8.63;;
12474;SDS011;6302;42.624;23.334;2023-08-06T05:43:06;8.90;;;8.07;;
12474;SDS011;6302;42.624;23.334;2023-08-06T05:45:33;9.03;;;8.20;;
12474;SDS011;6302;42.624;23.334;2023-08-06T05:48:00;9.53;;;8.53;;
12474;SDS011;6302;42.624;23.334;2023-08-06T05:50:26;9.07;;;8.23;;
12474;SDS011;6302;42.624;23.334;2023-08-06T05:52:53;10.07;;;9.10;;
12474;SDS011;6302;42.624;23.334;2023-08-06T05:55:21;12.27;;;10.27;;
12474;SDS011;6302;42.624;23.334;2023-08-06T05:57:48;13.30;;;10.63;;
12474;SDS011;6302;42.624;23.334;2023-08-06T06:00:17;11.50;;;10.40;;
12474;SDS011;6302;42.624;23.334;2023-08-06T06:02:43;10.47;;;9.40;;
12474;SDS011;6302;42.624;23.334;2023-08-06T06:05:10;12.50;;;11.37;;
12474;SDS011;6302;42.624;23.334;2023-08-06T06:07:37;13.13;;;11.80;;
12474;SDS011;6302;42.624;23.334;2023-08-06T06:10:04;11.40;;;10.27;;
12474;SDS011;6302;42.624;23.334;2023-08-06T06:12:33;13.37;;;12.00;;
12474;SDS011;6302;42.624;23.334;2023-08-06T06:15:00;12.60;;;11.40;;
12474;SDS011;6302;42.624;23.334;2023-08-06T06:17:27;13.03;;;12.00;;
12474;SDS011;6302;42.624;23.334;2023-08-06T06:19:53;12.53;;;11.53;;
12474;SDS011;6302;42.624;23.334;2023-08-06T06:22:20;11.70;;;10.80;;
12474;SDS011;6302;42.624;23.334;2023-08-06T06:24:47;11.73;;;10.70;;
12474;SDS011;6302;42.624;23.334;2023-08-06T06:27:14;11.63;;;10.43;;
12474;SDS011;6302;42.624;23.334;2023-08-06T06:29:42;13.10;;;12.00;;
12474;SDS011;6302;42.624;23.334;2023-08-06T06:32:08;14.27;;;12.83;;
12474;SDS011;6302;42.624;23.334;2023-08-06T06:34:35;13.83;;;12.43;;
12474;SDS011;6302;42.624;23.334;2023-08-06T06:37:02;10.33;;;9.23;;
12474;SDS011;6302;42.624;23.334;2023-08-06T06:39:29;9.13;;;7.93;;
12474;SDS011;6302;42.624;23.334;2023-08-06T06:41:56;8.17;;;7.37;;
12474;SDS011;6302;42.624;23.334;2023-08-06T06:44:23;7.17;;;6.40;;
12474;SDS011;6302;42.624;23.334;2023-08-06T06:46:51;6.13;;;5.63;;
12474;SDS011;6302;42.624;23.334;2023-08-06T06:49:18;6.40;;;5.57;;
12474;SDS011;6302;42.624;23.334;2023-08-06T06:51:44;12.07;;;10.80;;
12474;SDS011;6302;42.624;23.334;2023-08-06T06:54:11;13.10;;;11.53;;
12474;SDS011;6302;42.624;23.334;2023-08-06T06:56:38;10.83;;;9.83;;
12474;SDS011;6302;42.624;23.334;2023-08-06T06:59:05;11.60;;;10.50;;
12474;SDS011;6302;42.624;23.334;2023-08-06T07:01:31;12.90;;;11.70;;
12474;SDS011;6302;42.624;23.334;2023-08-06T07:04:00;11.47;;;10.37;;
12474;SDS011;6302;42.624;23.334;2023-08-06T07:06:29;10.53;;;9.53;;
12474;SDS011;6302;42.624;23.334;2023-08-06T07:08:56;11.10;;;10.00;;
12474;SDS011;6302;42.624;23.334;2023-08-06T07:11:23;11.67;;;10.57;;
12474;SDS011;6302;42.624;23.334;2023-08-06T07:13:55;10.43;;;9.43;;
12474;SDS011;6302;42.624;23.334;2023-08-06T07:16:23;9.07;;;8.17;;
12474;SDS011;6302;42.624;23.334;2023-08-06T07:18:50;7.23;;;6.53;;
12474;SDS011;6302;42.624;23.334;2023-08-06T07:21:19;5.90;;;5.40;;
12474;SDS011;6302;42.624;23.334;2023-08-06T07:23:46;5.30;;;4.80;;
12474;SDS011;6302;42.624;23.334;2023-08-06T07:26:14;5.27;;;4.20;;
12474;SDS011;6302;42.624;23.334;2023-08-06T07:28:41;3.60;;;3.30;;
12474;SDS011;6302;42.624;23.334;2023-08-06T07:31:09;3.77;;;3.47;;
12474;SDS011;6302;42.624;23.334;2023-08-06T07:33:36;3.50;;;3.20;;
12474;SDS011;6302;42.624;23.334;2023-08-06T07:36:07;4.23;;;3.07;;
12474;SDS011;6302;42.624;23.334;2023-08-06T07:38:36;3.40;;;3.10;;
12474;SDS011;6302;42.624;23.334;2023-08-06T07:41:03;3.40;;;3.10;;
12474;SDS011;6302;42.624;23.334;2023-08-06T07:43:30;3.30;;;3.00;;
12474;SDS011;6302;42.624;23.334;2023-08-06T07:45:57;3.20;;;2.87;;
12474;SDS011;6302;42.624;23.334;2023-08-06T07:48:25;2.43;;;2.23;;
12474;SDS011;6302;42.624;23.334;2023-08-06T07:50:52;2.93;;;2.67;;
12474;SDS011;6302;42.624;23.334;2023-08-06T07:53:19;3.47;;;2.63;;
12474;SDS011;6302;42.624;23.334;2023-08-06T07:55:49;3.43;;;3.13;;
12474;SDS011;6302;42.624;23.334;2023-08-06T07:58:16;3.43;;;2.87;;
12474;SDS011;6302;42.624;23.334;2023-08-06T08:00:43;2.93;;;2.73;;
12474;SDS011;6302;42.624;23.334;2023-08-06T08:03:10;2.57;;;2.37;;
12474;SDS011;6302;42.624;23.334;2023-08-06T08:05:37;3.83;;;3.00;;
12474;SDS011;6302;42.624;23.334;2023-08-06T08:08:04;3.87;;;3.57;;
12474;SDS011;6302;42.624;23.334;2023-08-06T08:10:31;3.10;;;2.80;;
12474;SDS011;6302;42.624;23.334;2023-08-06T08:12:59;4.63;;;2.70;;
12474;SDS011;6302;42.624;23.334;2023-08-06T08:15:27;3.20;;;2.83;;
12474;SDS011;6302;42.624;23.334;2023-08-06T08:17:55;3.20;;;2.93;;
12474;SDS011;6302;42.624;23.334;2023-08-06T08:20:22;3.70;;;3.30;;
12474;SDS011;6302;42.624;23.334;2023-08-06T08:22:48;3.80;;;3.50;;
12474;SDS011;6302;42.624;23.334;2023-08-06T08:25:15;4.17;;;3.80;;
12474;SDS011;6302;42.624;23.334;2023-08-06T08:27:43;5.47;;;4.97;;
12474;SDS011;6302;42.624;23.334;2023-08-06T08:30:11;5.03;;;4.43;;
12474;SDS011;6302;42.624;23.334;2023-08-06T08:32:38;5.43;;;5.03;;
12474;SDS011;6302;42.624;23.334;2023-08-06T08:35:04;5.17;;;4.77;;
12474;SDS011;6302;42.624;23.334;2023-08-06T08:37:31;5.35;;;4.85;;
12474;SDS011;6302;42.624;23.334;2023-08-06T08:39:58;5.50;;;5.00;;
12474;SDS011;6302;42.624;23.334;2023-08-06T08:42:25;5.73;;;5.23;;
12474;SDS011;6302;42.624;23.334;2023-08-06T08:44:53;5.10;;;4.80;;
12474;SDS011;6302;42.624;23.334;2023-08-06T08:47:22;5.47;;;4.93;;
12474;SDS011;6302;42.624;23.334;2023-08-06T08:49:51;4.27;;;3.90;;
12474;SDS011;6302;42.624;23.334;2023-08-06T08:52:20;4.80;;;4.40;;
12474;SDS011;6302;42.624;23.334;2023-08-06T08:54:47;3.63;;;3.33;;
12474;SDS011;6302;42.624;23.334;2023-08-06T08:57:16;5.07;;;3.30;;
12474;SDS011;6302;42.624;23.334;2023-08-06T08:59:43;3.70;;;3.40;;
12474;SDS011;6302;42.624;23.334;2023-08-06T09:02:11;3.55;;;3.10;;
12474;SDS011;6302;42.624;23.334;2023-08-06T09:04:42;3.93;;;3.00;;
12474;SDS011;6302;42.624;23.334;2023-08-06T09:07:11;3.57;;;2.80;;
12474;SDS011;6302;42.624;23.334;2023-08-06T09:09:43;3.47;;;3.17;;
12474;SDS011;6302;42.624;23.334;2023-08-06T09:12:14;3.10;;;2.80;;
12474;SDS011;6302;42.624;23.334;2023-08-06T09:14:42;3.50;;;2.80;;
12474;SDS011;6302;42.624;23.334;2023-08-06T09:17:09;3.40;;;3.10;;
12474;SDS011;6302;42.624;23.334;2023-08-06T09:19:36;3.50;;;3.20;;
12474;SDS011;6302;42.624;23.334;2023-08-06T09:22:05;3.33;;;3.10;;
12474;SDS011;6302;42.624;23.334;2023-08-06T09:24:38;3.83;;;2.97;;
12474;SDS011;6302;42.624;23.334;2023-08-06T09:27:05;3.45;;;3.15;;
12474;SDS011;6302;42.624;23.334;2023-08-06T09:29:39;3.42;;;3.00;;
12474;SDS011;6302;42.624;23.334;2023-08-06T09:32:10;3.23;;;3.00;;
12474;SDS011;6302;42.624;23.334;2023-08-06T09:34:38;3.17;;;2.90;;
12474;SDS011;6302;42.624;23.334;2023-08-06T09:37:08;3.30;;;3.10;;
12474;SDS011;6302;42.624;23.334;2023-08-06T09:39:36;3.42;;;3.15;;
12474;SDS011;6302;42.624;23.334;2023-08-06T09:42:04;3.22;;;3.03;;
12474;SDS011;6302;42.624;23.334;2023-08-06T09:44:31;3.10;;;2.90;;
12474;SDS011;6302;42.624;23.334;2023-08-06T09:46:59;3.35;;;3.05;;
12474;SDS011;6302;42.624;23.334;2023-08-06T09:49:27;3.92;;;3.25;;
12474;SDS011;6302;42.624;23.334;2023-08-06T09:52:07;4.13;;;3.22;;
12474;SDS011;6302;42.624;23.334;2023-08-06T09:54:37;4.30;;;3.90;;
12474;SDS011;6302;42.624;23.334;2023-08-06T09:57:05;5.50;;;4.20;;
12474;SDS011;6302;42.624;23.334;2023-08-06T09:59:32;3.37;;;3.17;;
12474;SDS011;6302;42.624;23.334;2023-08-06T10:02:00;7.47;;;3.92;;
12474;SDS011;6302;42.624;23.334;2023-08-06T10:04:29;3.80;;;3.40;;
12474;SDS011;6302;42.624;23.334;2023-08-06T10:06:56;4.63;;;4.03;;
12474;SDS011;6302;42.624;23.334;2023-08-06T10:09:25;4.10;;;3.70;;
12474;SDS011;6302;42.624;23.334;2023-08-06T10:11:52;3.55;;;3.25;;
12474;SDS011;6302;42.624;23.334;2023-08-06T10:14:21;3.90;;;3.60;;
12474;SDS011;6302;42.624;23.334;2023-08-06T10:16:51;4.07;;;3.33;;
12474;SDS011;6302;42.624;23.334;2023-08-06T10:19:19;3.75;;;3.30;;
12474;SDS011;6302;42.624;23.334;2023-08-06T10:24:48;3.55;;;3.25;;
12474;SDS011;6302;42.624;23.334;2023-08-06T10:27:19;3.65;;;2.85;;
12474;SDS011;6302;42.624;23.334;2023-08-06T10:29:47;3.90;;;3.55;;
12474;SDS011;6302;42.624;23.334;2023-08-06T10:32:14;3.33;;;3.03;;
12474;SDS011;6302;42.624;23.334;2023-08-06T10:34:56;3.00;;;2.80;;
12474;SDS011;6302;42.624;23.334;2023-08-06T10:37:34;3.00;;;2.70;;
12474;SDS011;6302;42.624;23.334;2023-08-06T10:40:03;3.35;;;3.05;;
12474;SDS011;6302;42.624;23.334;2023-08-06T10:42:33;4.82;;;3.65;;
12474;SDS011;6302;42.624;23.334;2023-08-06T10:45:12;4.33;;;3.93;;
12474;SDS011;6302;42.624;23.334;2023-08-06T10:47:43;3.93;;;3.63;;
12474;SDS011;6302;42.624;23.334;2023-08-06T10:50:11;5.13;;;3.15;;
12474;SDS011;6302;42.624;23.334;2023-08-06T10:52:41;5.80;;;4.20;;
12474;SDS011;6302;42.624;23.334;2023-08-06T10:55:10;4.90;;;4.40;;
12474;SDS011;6302;42.624;23.334;2023-08-06T10:57:36;5.63;;;4.43;;
12474;SDS011;6302;42.624;23.334;2023-08-06T11:00:04;4.67;;;4.20;;
12474;SDS011;6302;42.624;23.334;2023-08-06T11:02:33;4.00;;;3.70;;
12474;SDS011;6302;42.624;23.334;2023-08-06T11:05:07;4.50;;;4.10;;
12474;SDS011;6302;42.624;23.334;2023-08-06T11:07:35;5.28;;;4.20;;
12474;SDS011;6302;42.624;23.334;2023-08-06T11:10:03;4.47;;;4.07;;
12474;SDS011;6302;42.624;23.334;2023-08-06T11:12:32;4.40;;;4.05;;
12474;SDS011;6302;42.624;23.334;2023-08-06T11:14:59;4.93;;;3.70;;
12474;SDS011;6302;42.624;23.334;2023-08-06T11:17:27;4.30;;;3.90;;
12474;SDS011;6302;42.624;23.334;2023-08-06T11:19:55;4.00;;;3.60;;
12474;SDS011;6302;42.624;23.334;2023-08-06T11:22:22;4.18;;;3.88;;
12474;SDS011;6302;42.624;23.334;2023-08-06T11:24:55;4.50;;;3.95;;
12474;SDS011;6302;42.624;23.334;2023-08-06T11:27:25;3.50;;;3.20;;
12474;SDS011;6302;42.624;23.334;2023-08-06T11:29:57;2.70;;;2.40;;
12474;SDS011;6302;42.624;23.334;2023-08-06T11:32:24;2.63;;;2.42;;
12474;SDS011;6302;42.624;23.334;2023-08-06T11:34:55;2.67;;;2.47;;
12474;SDS011;6302;42.624;23.334;2023-08-06T11:37:22;3.40;;;2.70;;
12474;SDS011;6302;42.624;23.334;2023-08-06T11:39:50;3.40;;;3.03;;
12474;SDS011;6302;42.624;23.334;2023-08-06T11:42:18;2.97;;;2.73;;
12474;SDS011;6302;42.624;23.334;2023-08-06T11:44:46;2.93;;;2.70;;
12474;SDS011;6302;42.624;23.334;2023-08-06T11:47:18;4.43;;;3.37;;
12474;SDS011;6302;42.624;23.334;2023-08-06T11:49:46;4.83;;;3.27;;
12474;SDS011;6302;42.624;23.334;2023-08-06T11:52:17;4.10;;;3.53;;
12474;SDS011;6302;42.624;23.334;2023-08-06T11:54:46;5.17;;;3.73;;
12474;SDS011;6302;42.624;23.334;2023-08-06T11:57:15;4.60;;;3.72;;
12474;SDS011;6302;42.624;23.334;2023-08-06T11:59:44;4.40;;;4.00;;
12474;SDS011;6302;42.624;23.334;2023-08-06T12:02:14;4.13;;;3.83;;
12474;SDS011;6302;42.624;23.334;2023-08-06T12:04:59;5.87;;;3.97;;
12474;SDS011;6302;42.624;23.334;2023-08-06T12:07:26;4.23;;;3.60;;
12474;SDS011;6302;42.624;23.334;2023-08-06T12:10:01;4.85;;;4.00;;
12474;SDS011;6302;42.624;23.334;2023-08-06T12:12:31;4.83;;;4.00;;
12474;SDS011;6302;42.624;23.334;2023-08-06T12:14:58;4.00;;;3.63;;
12474;SDS011;6302;42.624;23.334;2023-08-06T12:17:25;4.43;;;4.03;;
12474;SDS011;6302;42.624;23.334;2023-08-06T12:19:55;4.07;;;3.70;;
12474;SDS011;6302;42.624;23.334;2023-08-06T12:22:23;5.10;;;4.60;;
12474;SDS011;6302;42.624;23.334;2023-08-06T12:24:50;7.60;;;5.72;;
12474;SDS011;6302;42.624;23.334;2023-08-06T12:27:16;4.68;;;4.28;;
12474;SDS011;6302;42.624;23.334;2023-08-06T12:29:44;7.85;;;4.63;;
12474;SDS011;6302;42.624;23.334;2023-08-06T12:32:12;5.53;;;5.03;;
12474;SDS011;6302;42.624;23.334;2023-08-06T12:34:39;4.82;;;4.35;;
12474;SDS011;6302;42.624;23.334;2023-08-06T12:37:06;4.83;;;4.43;;
12474;SDS011;6302;42.624;23.334;2023-08-06T12:39:35;5.43;;;5.00;;
12474;SDS011;6302;42.624;23.334;2023-08-06T12:42:03;5.28;;;4.78;;
12474;SDS011;6302;42.624;23.334;2023-08-06T12:44:31;5.80;;;4.57;;
12474;SDS011;6302;42.624;23.334;2023-08-06T12:46:58;9.93;;;4.73;;
12474;SDS011;6302;42.624;23.334;2023-08-06T12:49:25;5.07;;;4.65;;
12474;SDS011;6302;42.624;23.334;2023-08-06T12:51:53;5.80;;;4.87;;
12474;SDS011;6302;42.624;23.334;2023-08-06T12:54:21;7.30;;;5.13;;
12474;SDS011;6302;42.624;23.334;2023-08-06T12:56:50;7.00;;;4.97;;
12474;SDS011;6302;42.624;23.334;2023-08-06T12:59:17;5.77;;;5.13;;
12474;SDS011;6302;42.624;23.334;2023-08-06T13:01:44;5.35;;;4.80;;
12474;SDS011;6302;42.624;23.334;2023-08-06T13:04:11;5.10;;;4.75;;
12474;SDS011;6302;42.624;23.334;2023-08-06T13:06:38;5.70;;;5.20;;
12474;SDS011;6302;42.624;23.334;2023-08-06T13:09:05;6.85;;;5.10;;
12474;SDS011;6302;42.624;23.334;2023-08-06T13:11:33;5.40;;;4.90;;
12474;SDS011;6302;42.624;23.334;2023-08-06T13:14:06;4.75;;;4.32;;
12474;SDS011;6302;42.624;23.334;2023-08-06T13:16:34;4.82;;;4.43;;
12474;SDS011;6302;42.624;23.334;2023-08-06T13:19:02;4.25;;;3.90;;
12474;SDS011;6302;42.624;23.334;2023-08-06T13:21:31;4.40;;;4.00;;
12474;SDS011;6302;42.624;23.334;2023-08-06T13:24:00;4.30;;;3.90;;
12474;SDS011;6302;42.624;23.334;2023-08-06T13:26:27;4.40;;;4.10;;
12474;SDS011;6302;42.624;23.334;2023-08-06T13:28:54;5.40;;;4.38;;
12474;SDS011;6302;42.624;23.334;2023-08-06T13:31:22;5.05;;;4.55;;
12474;SDS011;6302;42.624;23.334;2023-08-06T13:33:49;5.85;;;4.88;;
12474;SDS011;6302;42.624;23.334;2023-08-06T13:36:16;5.10;;;4.50;;
12474;SDS011;6302;42.624;23.334;2023-08-06T13:38:43;5.50;;;5.03;;
12474;SDS011;6302;42.624;23.334;2023-08-06T13:41:10;5.10;;;4.60;;
12474;SDS011;6302;42.624;23.334;2023-08-06T13:43:36;5.73;;;5.20;;
12474;SDS011;6302;42.624;23.334;2023-08-06T13:46:03;5.80;;;5.30;;
12474;SDS011;6302;42.624;23.334;2023-08-06T13:48:31;6.43;;;5.93;;
12474;SDS011;6302;42.624;23.334;2023-08-06T13:50:58;5.60;;;5.10;;
12474;SDS011;6302;42.624;23.334;2023-08-06T13:53:25;5.80;;;4.90;;
12474;SDS011;6302;42.624;23.334;2023-08-06T13:55:55;5.45;;;4.95;;
12474;SDS011;6302;42.624;23.334;2023-08-06T13:58:22;5.43;;;4.70;;
12474;SDS011;6302;42.624;23.334;2023-08-06T14:00:48;4.60;;;4.20;;
12474;SDS011;6302;42.624;23.334;2023-08-06T14:03:18;5.80;;;4.47;;
12474;SDS011;6302;42.624;23.334;2023-08-06T14:05:46;5.38;;;4.50;;
12474;SDS011;6302;42.624;23.334;2023-08-06T14:08:13;4.95;;;4.53;;
12474;SDS011;6302;42.624;23.334;2023-08-06T14:10:40;5.30;;;4.82;;
12474;SDS011;6302;42.624;23.334;2023-08-06T14:13:07;4.70;;;4.30;;
12474;SDS011;6302;42.624;23.334;2023-08-06T14:15:33;4.03;;;3.72;;
12474;SDS011;6302;42.624;23.334;2023-08-06T14:18:00;5.45;;;4.95;;
12474;SDS011;6302;42.624;23.334;2023-08-06T14:20:27;5.20;;;4.60;;
12474;SDS011;6302;42.624;23.334;2023-08-06T14:22:55;4.70;;;4.30;;
12474;SDS011;6302;42.624;23.334;2023-08-06T14:25:22;3.95;;;3.60;;
12474;SDS011;6302;42.624;23.334;2023-08-06T14:27:49;4.35;;;4.05;;
12474;SDS011;6302;42.624;23.334;2023-08-06T14:30:16;5.10;;;4.50;;
12474;SDS011;6302;42.624;23.334;2023-08-06T14:32:43;4.22;;;3.83;;
12474;SDS011;6302;42.624;23.334;2023-08-06T14:35:10;4.95;;;4.35;;
12474;SDS011;6302;42.624;23.334;2023-08-06T14:37:37;4.55;;;4.05;;
12474;SDS011;6302;42.624;23.334;2023-08-06T14:40:06;4.43;;;4.13;;
12474;SDS011;6302;42.624;23.334;2023-08-06T14:42:34;4.35;;;4.00;;
12474;SDS011;6302;42.624;23.334;2023-08-06T14:45:01;3.90;;;3.60;;
12474;SDS011;6302;42.624;23.334;2023-08-06T14:47:28;3.88;;;3.58;;
12474;SDS011;6302;42.624;23.334;2023-08-06T14:49:55;4.53;;;4.13;;
12474;SDS011;6302;42.624;23.334;2023-08-06T14:52:22;6.55;;;4.10;;